Terminal Aerodrome Forecast
Issued by NWS Wilmington, NC

Home | Current Version | Previous Version | Text Only | Print | Product List | Glossary On
Versions: 1 2 3 4 5 6 7 8 9 10 11 12 13 14 15 16
445
FTUS42 KILM 251120
TAFFLO
TAF
KFLO 251120Z 2512/2612 33007KT P6SM VCSH OVC004
      TEMPO 2512/2516 3SM -SHRA BR OVC008
     FM251600 29008KT P6SM BKN008
      TEMPO 2516/2520 5SM -SHRA BR OVC015
     FM260100 31006KT P6SM BKN020
     FM260600 28003KT P6SM SCT150=

USA.gov is the U.S. government's official web portal to all federal, state and local government web resources and services.